Página principal
METAR-TAF:

METAR-TAF

Aeroportos :

Valladolid, Espanha

latitude: 41-43N, longitude: 004-51W, altura: 849 m

Observação actual do tempo

O boletim foi feito há 16 minutos, às 05:30 UTC
Vento calmo
Temperatura 10°C
Humidade 100%
Pressão 1013 hPa
Visibilidade: 1100 m
Nuvens fragmentadasa uma altura de 200 ft
neblina

METAR: LEVD 260530Z 00000KT 1100 BR BKN002 10/10 Q1013

Hora: 07:46 (05:46 UTC)

Previsão

O boletim foi feito há 46 minutos, às 05:00 UTC
Previsão válida de 26 às 06 UTC a 27 às 06 UTC
Vento 4 kt com direcção variável
Visibilidade 10 km ou mais
Nuvens dispersasa uma altura de 3000 ft
Temporariamente
de 26 às 06 UTC a 26 às 09 UTC
Visibilidade: 0800 m
a uma altura de 200 ft
nevoeiro
Probabilidade 30% :
Temporariamente
de 26 às 12 UTC a 26 às 18 UTC
Nuvens dispersasa uma altura de 3000 ft, Cumulus congestus.
aguaceiros de chuva

TAF: LEVD 260500Z 2606/2706 VRB04KT 9999 SCT030 TX16/2615Z TN09/2606Z TEMPO 2606/2609 0800 FG VV002 PROB30 TEMPO 2612/2618 SHRA SCT030TCU

Observações e previsões do tempo de mais de 4000 aeroportos (mensagens METAR e TAF).

As estações disponíveis são os pontos amarelos e vermelhos sobre o mapa.

Mova o rato sobre o mapa para ver o nome da estação.

Depois clique no ponto para visualizar as observações e previsões meteorológicas.

Para alterar o mapa : clique nos botões verdes com uma cruz preta para aumentar o zoom; no botão verde com uma pitada de zoom; ou nas setas verdes para mapas adjacentes.


METAR-TAF: